sensor_id;sensor_type;location;lat;lon;timestamp;pressure;altitude;pressure_sealevel;temperature;humidity
84975;BME280;75284;50.310;19.284;2024-01-06T00:01:23;97255.13;;;0.04;81.59
84975;BME280;75284;50.310;19.284;2024-01-06T00:03:53;97263.63;;;0.05;81.47
84975;BME280;75284;50.310;19.284;2024-01-06T00:06:23;97268.44;;;0.05;81.67
84975;BME280;75284;50.310;19.284;2024-01-06T00:08:53;97261.33;;;0.04;81.35
84975;BME280;75284;50.310;19.284;2024-01-06T00:11:23;97263.88;;;0.03;81.75
84975;BME280;75284;50.310;19.284;2024-01-06T00:13:52;97265.05;;;0.04;81.70
84975;BME280;75284;50.310;19.284;2024-01-06T00:16:22;97266.91;;;0.02;81.61
84975;BME280;75284;50.310;19.284;2024-01-06T00:18:52;97261.24;;;0.00;81.79
84975;BME280;75284;50.310;19.284;2024-01-06T00:21:23;97255.73;;;0.01;81.88
84975;BME280;75284;50.310;19.284;2024-01-06T00:23:52;97252.23;;;0.05;81.77
84975;BME280;75284;50.310;19.284;2024-01-06T00:26:22;97248.63;;;0.08;81.71
84975;BME280;75284;50.310;19.284;2024-01-06T00:28:53;97243.57;;;0.12;81.66
84975;BME280;75284;50.310;19.284;2024-01-06T00:31:22;97242.14;;;0.18;81.48
84975;BME280;75284;50.310;19.284;2024-01-06T00:33:52;97245.17;;;0.25;81.64
84975;BME280;75284;50.310;19.284;2024-01-06T00:36:22;97244.90;;;0.32;81.40
84975;BME280;75284;50.310;19.284;2024-01-06T00:38:51;97242.83;;;0.36;81.40
84975;BME280;75284;50.310;19.284;2024-01-06T00:41:25;97247.48;;;0.33;81.25
84975;BME280;75284;50.310;19.284;2024-01-06T00:43:54;97249.58;;;0.32;81.26
84975;BME280;75284;50.310;19.284;2024-01-06T00:46:24;97245.73;;;0.32;81.20
84975;BME280;75284;50.310;19.284;2024-01-06T00:48:53;97243.18;;;0.34;81.40
84975;BME280;75284;50.310;19.284;2024-01-06T00:51:27;97245.91;;;0.36;81.19
84975;BME280;75284;50.310;19.284;2024-01-06T00:53:57;97248.30;;;0.38;81.11
84975;BME280;75284;50.310;19.284;2024-01-06T00:56:31;97248.34;;;0.42;81.34
84975;BME280;75284;50.310;19.284;2024-01-06T00:59:00;97245.64;;;0.47;81.24
84975;BME280;75284;50.310;19.284;2024-01-06T01:01:30;97246.30;;;0.52;81.13
84975;BME280;75284;50.310;19.284;2024-01-06T01:04:04;97245.86;;;0.52;81.13
84975;BME280;75284;50.310;19.284;2024-01-06T01:06:34;97250.90;;;0.51;81.20
84975;BME280;75284;50.310;19.284;2024-01-06T01:09:05;97249.98;;;0.53;81.04
84975;BME280;75284;50.310;19.284;2024-01-06T01:11:35;97251.02;;;0.56;81.22
84975;BME280;75284;50.310;19.284;2024-01-06T01:14:05;97257.27;;;0.59;81.13
84975;BME280;75284;50.310;19.284;2024-01-06T01:16:34;97255.45;;;0.59;80.96
84975;BME280;75284;50.310;19.284;2024-01-06T01:19:04;97251.61;;;0.59;80.96
84975;BME280;75284;50.310;19.284;2024-01-06T01:21:38;97254.08;;;0.57;81.03
84975;BME280;75284;50.310;19.284;2024-01-06T01:24:07;97259.55;;;0.53;81.08
84975;BME280;75284;50.310;19.284;2024-01-06T01:26:37;97266.23;;;0.47;81.29
84975;BME280;75284;50.310;19.284;2024-01-06T01:29:07;97272.33;;;0.43;81.27
84975;BME280;75284;50.310;19.284;2024-01-06T01:31:36;97271.92;;;0.40;81.12
84975;BME280;75284;50.310;19.284;2024-01-06T01:34:06;97269.31;;;0.35;81.31
84975;BME280;75284;50.310;19.284;2024-01-06T01:36:36;97267.35;;;0.34;81.56
84975;BME280;75284;50.310;19.284;2024-01-06T01:39:05;97265.89;;;0.34;81.37
84975;BME280;75284;50.310;19.284;2024-01-06T01:41:35;97269.39;;;0.39;81.51
84975;BME280;75284;50.310;19.284;2024-01-06T01:44:05;97268.31;;;0.40;81.44
84975;BME280;75284;50.310;19.284;2024-01-06T01:46:35;97272.52;;;0.43;81.28
84975;BME280;75284;50.310;19.284;2024-01-06T01:49:05;97265.30;;;0.50;81.57
84975;BME280;75284;50.310;19.284;2024-01-06T01:51:36;97267.55;;;0.55;81.12
84975;BME280;75284;50.310;19.284;2024-01-06T01:54:08;97262.98;;;0.58;81.39
84975;BME280;75284;50.310;19.284;2024-01-06T01:56:40;97259.41;;;0.62;81.09
84975;BME280;75284;50.310;19.284;2024-01-06T01:59:13;97256.05;;;0.62;81.32
84975;BME280;75284;50.310;19.284;2024-01-06T02:01:43;97253.52;;;0.62;81.31
84975;BME280;75284;50.310;19.284;2024-01-06T02:04:17;97248.16;;;0.63;81.26
84975;BME280;75284;50.310;19.284;2024-01-06T02:06:46;97247.46;;;0.67;81.17
84975;BME280;75284;50.310;19.284;2024-01-06T02:09:16;97244.59;;;0.71;81.32
84975;BME280;75284;50.310;19.284;2024-01-06T02:11:46;97246.95;;;0.76;80.97
84975;BME280;75284;50.310;19.284;2024-01-06T02:14:16;97251.78;;;0.83;81.14
84975;BME280;75284;50.310;19.284;2024-01-06T02:16:45;97250.11;;;0.86;81.20
84975;BME280;75284;50.310;19.284;2024-01-06T02:19:17;97247.91;;;0.90;81.14
84975;BME280;75284;50.310;19.284;2024-01-06T02:21:53;97250.79;;;0.90;81.02
84975;BME280;75284;50.310;19.284;2024-01-06T02:24:25;97254.16;;;0.85;81.01
84975;BME280;75284;50.310;19.284;2024-01-06T02:26:57;97254.75;;;0.79;81.22
84975;BME280;75284;50.310;19.284;2024-01-06T02:29:26;97256.13;;;0.74;81.28
84975;BME280;75284;50.310;19.284;2024-01-06T02:31:56;97258.88;;;0.70;81.20
84975;BME280;75284;50.310;19.284;2024-01-06T02:34:26;97261.10;;;0.68;81.51
84975;BME280;75284;50.310;19.284;2024-01-06T02:36:55;97255.36;;;0.67;81.60
84975;BME280;75284;50.310;19.284;2024-01-06T02:39:31;97250.58;;;0.69;81.23
84975;BME280;75284;50.310;19.284;2024-01-06T02:42:00;97248.53;;;0.71;81.22
84975;BME280;75284;50.310;19.284;2024-01-06T02:44:30;97245.35;;;0.74;81.09
84975;BME280;75284;50.310;19.284;2024-01-06T02:47:00;97241.16;;;0.78;81.02
84975;BME280;75284;50.310;19.284;2024-01-06T02:49:29;97235.59;;;0.77;81.36
84975;BME280;75284;50.310;19.284;2024-01-06T02:51:59;97225.61;;;0.75;81.03
84975;BME280;75284;50.310;19.284;2024-01-06T02:54:29;97219.70;;;0.73;81.06
84975;BME280;75284;50.310;19.284;2024-01-06T02:56:58;97216.07;;;0.71;81.03
84975;BME280;75284;50.310;19.284;2024-01-06T02:59:28;97215.08;;;0.70;81.41
84975;BME280;75284;50.310;19.284;2024-01-06T03:01:57;97215.80;;;0.69;81.54
84975;BME280;75284;50.310;19.284;2024-01-06T03:04:27;97212.88;;;0.72;81.30
84975;BME280;75284;50.310;19.284;2024-01-06T03:06:56;97215.00;;;0.76;81.50
84975;BME280;75284;50.310;19.284;2024-01-06T03:09:26;97218.09;;;0.79;81.26
84975;BME280;75284;50.310;19.284;2024-01-06T03:11:56;97219.97;;;0.81;81.17
84975;BME280;75284;50.310;19.284;2024-01-06T03:14:25;97217.31;;;0.78;81.27
84975;BME280;75284;50.310;19.284;2024-01-06T03:16:55;97219.06;;;0.76;81.38
84975;BME280;75284;50.310;19.284;2024-01-06T03:19:26;97223.29;;;0.71;81.22
84975;BME280;75284;50.310;19.284;2024-01-06T03:21:56;97221.73;;;0.70;81.43
84975;BME280;75284;50.310;19.284;2024-01-06T03:24:27;97221.11;;;0.72;81.57
84975;BME280;75284;50.310;19.284;2024-01-06T03:26:56;97221.38;;;0.71;81.76
84975;BME280;75284;50.310;19.284;2024-01-06T03:29:26;97217.48;;;0.67;81.43
84975;BME280;75284;50.310;19.284;2024-01-06T03:31:56;97216.28;;;0.64;81.55
84975;BME280;75284;50.310;19.284;2024-01-06T03:34:25;97216.80;;;0.64;81.48
84975;BME280;75284;50.310;19.284;2024-01-06T03:36:55;97212.06;;;0.65;81.17
84975;BME280;75284;50.310;19.284;2024-01-06T03:39:24;97207.20;;;0.71;81.66
84975;BME280;75284;50.310;19.284;2024-01-06T03:41:54;97205.47;;;0.77;81.36
84975;BME280;75284;50.310;19.284;2024-01-06T03:44:24;97207.08;;;0.79;81.15
84975;BME280;75284;50.310;19.284;2024-01-06T03:46:53;97212.70;;;0.76;81.26
84975;BME280;75284;50.310;19.284;2024-01-06T03:49:23;97211.23;;;0.75;81.07
84975;BME280;75284;50.310;19.284;2024-01-06T03:51:53;97213.70;;;0.71;81.19
84975;BME280;75284;50.310;19.284;2024-01-06T03:54:22;97213.62;;;0.67;81.42
84975;BME280;75284;50.310;19.284;2024-01-06T03:56:52;97216.70;;;0.65;81.43
84975;BME280;75284;50.310;19.284;2024-01-06T03:59:21;97213.73;;;0.63;81.23
84975;BME280;75284;50.310;19.284;2024-01-06T04:01:51;97206.73;;;0.64;81.50
84975;BME280;75284;50.310;19.284;2024-01-06T04:04:21;97202.46;;;0.69;81.25
84975;BME280;75284;50.310;19.284;2024-01-06T04:06:50;97204.49;;;0.74;81.61
84975;BME280;75284;50.310;19.284;2024-01-06T04:09:20;97210.94;;;0.79;81.54
84975;BME280;75284;50.310;19.284;2024-01-06T04:11:50;97211.41;;;0.88;81.62
84975;BME280;75284;50.310;19.284;2024-01-06T04:14:19;97213.83;;;0.94;81.56
84975;BME280;75284;50.310;19.284;2024-01-06T04:16:49;97216.39;;;0.98;81.42
84975;BME280;75284;50.310;19.284;2024-01-06T04:19:19;97218.52;;;1.04;81.46
84975;BME280;75284;50.310;19.284;2024-01-06T04:21:50;97220.38;;;1.03;81.40
84975;BME280;75284;50.310;19.284;2024-01-06T04:24:19;97223.86;;;0.98;81.46
84975;BME280;75284;50.310;19.284;2024-01-06T04:26:51;97226.10;;;0.92;81.70
84975;BME280;75284;50.310;19.284;2024-01-06T04:29:21;97227.00;;;0.85;81.67
84975;BME280;75284;50.310;19.284;2024-01-06T04:31:50;97230.64;;;0.86;81.75
84975;BME280;75284;50.310;19.284;2024-01-06T04:34:20;97234.49;;;0.90;81.82
84975;BME280;75284;50.310;19.284;2024-01-06T04:36:50;97231.42;;;0.92;81.47
84975;BME280;75284;50.310;19.284;2024-01-06T04:39:20;97231.70;;;0.96;81.43
84975;BME280;75284;50.310;19.284;2024-01-06T04:41:49;97230.17;;;0.98;81.56
84975;BME280;75284;50.310;19.284;2024-01-06T04:44:22;97235.02;;;0.97;81.46
84975;BME280;75284;50.310;19.284;2024-01-06T04:46:52;97237.63;;;0.95;81.61
84975;BME280;75284;50.310;19.284;2024-01-06T04:49:21;97236.45;;;0.92;81.59
84975;BME280;75284;50.310;19.284;2024-01-06T04:51:51;97233.55;;;0.89;81.70
84975;BME280;75284;50.310;19.284;2024-01-06T04:54:23;97235.48;;;0.91;81.53
84975;BME280;75284;50.310;19.284;2024-01-06T04:56:54;97237.15;;;0.96;81.87
84975;BME280;75284;50.310;19.284;2024-01-06T04:59:25;97241.14;;;1.00;81.54
84975;BME280;75284;50.310;19.284;2024-01-06T05:02:01;97238.77;;;1.04;81.51
84975;BME280;75284;50.310;19.284;2024-01-06T05:04:31;97241.39;;;1.02;81.28
84975;BME280;75284;50.310;19.284;2024-01-06T05:07:02;97243.75;;;0.98;81.76
84975;BME280;75284;50.310;19.284;2024-01-06T05:09:32;97247.36;;;0.93;81.67
84975;BME280;75284;50.310;19.284;2024-01-06T05:12:02;97248.25;;;0.87;81.87
84975;BME280;75284;50.310;19.284;2024-01-06T05:14:31;97247.39;;;0.83;81.78
84975;BME280;75284;50.310;19.284;2024-01-06T05:17:01;97247.48;;;0.84;81.90
84975;BME280;75284;50.310;19.284;2024-01-06T05:19:56;97247.45;;;0.89;82.03
84975;BME280;75284;50.310;19.284;2024-01-06T05:22:26;97242.30;;;0.95;81.77
84975;BME280;75284;50.310;19.284;2024-01-06T05:24:55;97244.70;;;1.00;81.69
84975;BME280;75284;50.310;19.284;2024-01-06T05:27:25;97246.89;;;1.04;81.86
84975;BME280;75284;50.310;19.284;2024-01-06T05:29:54;97249.33;;;1.07;81.57
84975;BME280;75284;50.310;19.284;2024-01-06T05:32:24;97245.48;;;1.08;81.55
84975;BME280;75284;50.310;19.284;2024-01-06T05:34:54;97251.58;;;1.08;81.70
84975;BME280;75284;50.310;19.284;2024-01-06T05:37:23;97255.17;;;1.06;81.53
84975;BME280;75284;50.310;19.284;2024-01-06T05:39:53;97260.58;;;1.03;81.62
84975;BME280;75284;50.310;19.284;2024-01-06T05:42:24;97258.55;;;1.02;81.62
84975;BME280;75284;50.310;19.284;2024-01-06T05:44:53;97262.65;;;1.03;81.63
84975;BME280;75284;50.310;19.284;2024-01-06T05:47:24;97261.13;;;1.04;81.83
84975;BME280;75284;50.310;19.284;2024-01-06T05:49:53;97262.13;;;1.06;81.82
84975;BME280;75284;50.310;19.284;2024-01-06T05:52:23;97261.02;;;1.10;81.89
84975;BME280;75284;50.310;19.284;2024-01-06T05:54:53;97258.34;;;1.15;81.79
84975;BME280;75284;50.310;19.284;2024-01-06T05:57:22;97259.27;;;1.19;81.97
84975;BME280;75284;50.310;19.284;2024-01-06T05:59:52;97258.92;;;1.22;81.72
84975;BME280;75284;50.310;19.284;2024-01-06T06:02:22;97255.64;;;1.28;81.48
84975;BME280;75284;50.310;19.284;2024-01-06T06:04:57;97253.84;;;1.32;81.69
84975;BME280;75284;50.310;19.284;2024-01-06T06:07:27;97252.81;;;1.35;81.53
84975;BME280;75284;50.310;19.284;2024-01-06T06:09:56;97254.43;;;1.39;81.99
84975;BME280;75284;50.310;19.284;2024-01-06T06:12:26;97258.52;;;1.40;81.59
84975;BME280;75284;50.310;19.284;2024-01-06T06:14:55;97257.02;;;1.41;81.62
84975;BME280;75284;50.310;19.284;2024-01-06T06:17:25;97251.60;;;1.46;81.52
84975;BME280;75284;50.310;19.284;2024-01-06T06:19:55;97261.45;;;1.53;81.63
84975;BME280;75284;50.310;19.284;2024-01-06T06:22:26;97266.02;;;1.57;81.55
84975;BME280;75284;50.310;19.284;2024-01-06T06:24:59;97265.46;;;1.60;81.38
84975;BME280;75284;50.310;19.284;2024-01-06T06:27:29;97259.73;;;1.61;81.48
84975;BME280;75284;50.310;19.284;2024-01-06T06:29:59;97263.08;;;1.64;81.52
84975;BME280;75284;50.310;19.284;2024-01-06T06:32:28;97270.52;;;1.63;81.51
84975;BME280;75284;50.310;19.284;2024-01-06T06:34:58;97271.57;;;1.57;81.48
84975;BME280;75284;50.310;19.284;2024-01-06T06:37:27;97268.67;;;1.50;81.54
84975;BME280;75284;50.310;19.284;2024-01-06T06:39:57;97270.02;;;1.47;81.72
84975;BME280;75284;50.310;19.284;2024-01-06T06:42:26;97268.89;;;1.45;81.53
84975;BME280;75284;50.310;19.284;2024-01-06T06:44:56;97270.94;;;1.42;81.65
84975;BME280;75284;50.310;19.284;2024-01-06T06:47:26;97273.36;;;1.45;81.75
84975;BME280;75284;50.310;19.284;2024-01-06T06:49:55;97273.55;;;1.54;81.74
84975;BME280;75284;50.310;19.284;2024-01-06T06:52:25;97276.05;;;1.60;81.51
84975;BME280;75284;50.310;19.284;2024-01-06T06:54:54;97277.31;;;1.62;81.80
84975;BME280;75284;50.310;19.284;2024-01-06T06:57:28;97274.84;;;1.63;81.54
84975;BME280;75284;50.310;19.284;2024-01-06T07:00:00;97273.34;;;1.59;82.01
84975;BME280;75284;50.310;19.284;2024-01-06T07:02:30;97272.95;;;1.57;81.87
84975;BME280;75284;50.310;19.284;2024-01-06T07:05:07;97276.20;;;1.59;81.94
84975;BME280;75284;50.310;19.284;2024-01-06T07:07:36;97278.81;;;1.63;81.86
84975;BME280;75284;50.310;19.284;2024-01-06T07:10:08;97278.29;;;1.68;81.91
84975;BME280;75284;50.310;19.284;2024-01-06T07:12:38;97279.80;;;1.75;82.13
84975;BME280;75284;50.310;19.284;2024-01-06T07:15:09;97280.94;;;1.82;81.78
84975;BME280;75284;50.310;19.284;2024-01-06T07:17:40;97279.31;;;1.82;81.91
84975;BME280;75284;50.310;19.284;2024-01-06T07:20:12;97278.02;;;1.77;82.01
84975;BME280;75284;50.310;19.284;2024-01-06T07:22:41;97284.55;;;1.73;82.17
84975;BME280;75284;50.310;19.284;2024-01-06T07:25:11;97288.40;;;1.70;81.86
84975;BME280;75284;50.310;19.284;2024-01-06T07:27:41;97293.30;;;1.67;82.43
84975;BME280;75284;50.310;19.284;2024-01-06T07:30:12;97288.48;;;1.64;82.23
84975;BME280;75284;50.310;19.284;2024-01-06T07:32:44;97289.95;;;1.65;82.29
84975;BME280;75284;50.310;19.284;2024-01-06T07:35:13;97290.14;;;1.67;82.28
84975;BME280;75284;50.310;19.284;2024-01-06T07:37:43;97294.39;;;1.73;82.29
84975;BME280;75284;50.310;19.284;2024-01-06T07:40:14;97296.16;;;1.80;82.15
84975;BME280;75284;50.310;19.284;2024-01-06T07:42:49;97297.44;;;1.88;82.16
84975;BME280;75284;50.310;19.284;2024-01-06T07:45:19;97296.29;;;1.94;81.95
84975;BME280;75284;50.310;19.284;2024-01-06T07:47:49;97297.52;;;2.02;82.08
84975;BME280;75284;50.310;19.284;2024-01-06T07:50:18;97298.33;;;2.09;82.30
84975;BME280;75284;50.310;19.284;2024-01-06T07:52:48;97300.88;;;2.17;82.18
84975;BME280;75284;50.310;19.284;2024-01-06T07:55:18;97297.35;;;2.24;82.05
84975;BME280;75284;50.310;19.284;2024-01-06T07:57:48;97296.29;;;2.31;82.18
84975;BME280;75284;50.310;19.284;2024-01-06T08:00:19;97304.09;;;2.34;82.14
84975;BME280;75284;50.310;19.284;2024-01-06T08:02:49;97300.05;;;2.32;82.24
84975;BME280;75284;50.310;19.284;2024-01-06T08:05:18;97300.23;;;2.28;82.09
84975;BME280;75284;50.310;19.284;2024-01-06T08:07:48;97305.90;;;2.22;82.03
84975;BME280;75284;50.310;19.284;2024-01-06T08:10:19;97305.73;;;2.19;82.09
84975;BME280;75284;50.310;19.284;2024-01-06T08:12:50;97307.99;;;2.18;82.71
84975;BME280;75284;50.310;19.284;2024-01-06T08:15:19;97310.77;;;2.17;82.66
84975;BME280;75284;50.310;19.284;2024-01-06T08:17:49;97318.46;;;2.16;82.58
84975;BME280;75284;50.310;19.284;2024-01-06T08:20:18;97324.00;;;2.17;82.46
84975;BME280;75284;50.310;19.284;2024-01-06T08:22:48;97328.57;;;2.17;82.82
84975;BME280;75284;50.310;19.284;2024-01-06T08:25:18;97333.67;;;2.17;82.36
84975;BME280;75284;50.310;19.284;2024-01-06T08:27:47;97335.30;;;2.18;82.39
84975;BME280;75284;50.310;19.284;2024-01-06T08:30:17;97338.71;;;2.17;82.44
84975;BME280;75284;50.310;19.284;2024-01-06T08:32:47;97338.73;;;2.15;82.66
84975;BME280;75284;50.310;19.284;2024-01-06T08:35:16;97340.33;;;2.21;82.72
84975;BME280;75284;50.310;19.284;2024-01-06T08:37:46;97343.17;;;2.27;82.83
84975;BME280;75284;50.310;19.284;2024-01-06T08:40:16;97340.46;;;2.31;82.30
84975;BME280;75284;50.310;19.284;2024-01-06T08:42:45;97340.80;;;2.35;82.34
84975;BME280;75284;50.310;19.284;2024-01-06T08:45:15;97345.88;;;2.37;82.34
84975;BME280;75284;50.310;19.284;2024-01-06T08:47:45;97351.73;;;2.37;82.10
84975;BME280;75284;50.310;19.284;2024-01-06T08:50:20;97351.32;;;2.40;82.22
84975;BME280;75284;50.310;19.284;2024-01-06T08:52:50;97348.16;;;2.45;82.13
84975;BME280;75284;50.310;19.284;2024-01-06T08:55:19;97346.66;;;2.48;82.29
84975;BME280;75284;50.310;19.284;2024-01-06T08:57:49;97351.02;;;2.53;82.36
84975;BME280;75284;50.310;19.284;2024-01-06T09:00:19;97353.08;;;2.60;82.18
84975;BME280;75284;50.310;19.284;2024-01-06T09:02:49;97355.84;;;2.65;82.13
84975;BME280;75284;50.310;19.284;2024-01-06T09:05:18;97358.38;;;2.67;82.13
84975;BME280;75284;50.310;19.284;2024-01-06T09:07:48;97359.07;;;2.68;82.18
84975;BME280;75284;50.310;19.284;2024-01-06T09:10:19;97364.64;;;2.73;82.04
84975;BME280;75284;50.310;19.284;2024-01-06T09:12:49;97363.22;;;2.78;81.86
84975;BME280;75284;50.310;19.284;2024-01-06T09:15:18;97360.64;;;2.83;82.09
84975;BME280;75284;50.310;19.284;2024-01-06T09:17:48;97362.88;;;2.89;82.12
84975;BME280;75284;50.310;19.284;2024-01-06T09:20:18;97364.28;;;2.99;82.07
84975;BME280;75284;50.310;19.284;2024-01-06T09:22:52;97361.27;;;3.09;82.11
84975;BME280;75284;50.310;19.284;2024-01-06T09:25:21;97362.71;;;3.16;81.84
84975;BME280;75284;50.310;19.284;2024-01-06T09:27:53;97357.98;;;3.21;81.71
84975;BME280;75284;50.310;19.284;2024-01-06T09:30:23;97355.95;;;3.29;81.49
84975;BME280;75284;50.310;19.284;2024-01-06T09:32:56;97354.71;;;3.37;81.85
84975;BME280;75284;50.310;19.284;2024-01-06T09:35:25;97355.70;;;3.45;81.76
84975;BME280;75284;50.310;19.284;2024-01-06T09:37:55;97358.13;;;3.52;81.59
84975;BME280;75284;50.310;19.284;2024-01-06T09:40:25;97360.34;;;3.57;81.36
84975;BME280;75284;50.310;19.284;2024-01-06T09:42:55;97362.77;;;3.60;81.45
84975;BME280;75284;50.310;19.284;2024-01-06T09:45:25;97360.34;;;3.66;81.54
84975;BME280;75284;50.310;19.284;2024-01-06T09:47:55;97363.77;;;3.70;81.48
84975;BME280;75284;50.310;19.284;2024-01-06T09:50:27;97360.47;;;3.78;81.42
84975;BME280;75284;50.310;19.284;2024-01-06T09:52:58;97363.33;;;3.81;81.55
84975;BME280;75284;50.310;19.284;2024-01-06T09:55:35;97358.66;;;3.83;81.31
84975;BME280;75284;50.310;19.284;2024-01-06T09:58:05;97358.05;;;3.86;81.63
84975;BME280;75284;50.310;19.284;2024-01-06T10:00:39;97354.66;;;3.92;81.77
84975;BME280;75284;50.310;19.284;2024-01-06T10:03:09;97355.73;;;3.97;81.77
84975;BME280;75284;50.310;19.284;2024-01-06T10:05:39;97359.59;;;4.02;81.55
84975;BME280;75284;50.310;19.284;2024-01-06T10:08:09;97362.98;;;4.04;81.55
84975;BME280;75284;50.310;19.284;2024-01-06T10:10:44;97363.31;;;4.04;81.92
84975;BME280;75284;50.310;19.284;2024-01-06T10:13:18;97365.12;;;4.03;81.95
84975;BME280;75284;50.310;19.284;2024-01-06T10:15:50;97359.08;;;4.00;81.84
84975;BME280;75284;50.310;19.284;2024-01-06T10:18:21;97362.39;;;3.99;81.96
84975;BME280;75284;50.310;19.284;2024-01-06T10:20:57;97363.52;;;4.00;81.77
84975;BME280;75284;50.310;19.284;2024-01-06T10:23:28;97359.19;;;4.02;81.46
84975;BME280;75284;50.310;19.284;2024-01-06T10:25:58;97360.04;;;4.02;81.74
84975;BME280;75284;50.310;19.284;2024-01-06T10:28:28;97357.67;;;3.99;82.03
84975;BME280;75284;50.310;19.284;2024-01-06T10:30:58;97356.00;;;3.96;81.79
84975;BME280;75284;50.310;19.284;2024-01-06T10:33:29;97356.05;;;3.96;81.89
84975;BME280;75284;50.310;19.284;2024-01-06T10:36:03;97355.10;;;3.98;82.08
84975;BME280;75284;50.310;19.284;2024-01-06T10:38:37;97351.30;;;4.00;82.11
84975;BME280;75284;50.310;19.284;2024-01-06T10:41:07;97348.73;;;4.02;82.47
84975;BME280;75284;50.310;19.284;2024-01-06T10:43:39;97350.36;;;4.04;82.25
84975;BME280;75284;50.310;19.284;2024-01-06T10:46:13;97346.91;;;4.10;82.34
84975;BME280;75284;50.310;19.284;2024-01-06T10:48:46;97347.85;;;4.16;82.24
84975;BME280;75284;50.310;19.284;2024-01-06T10:51:16;97348.33;;;4.24;82.72
84975;BME280;75284;50.310;19.284;2024-01-06T10:53:48;97345.77;;;4.32;82.77
84975;BME280;75284;50.310;19.284;2024-01-06T10:56:20;97347.71;;;4.41;82.68
84975;BME280;75284;50.310;19.284;2024-01-06T10:58:50;97344.22;;;4.49;82.65
84975;BME280;75284;50.310;19.284;2024-01-06T11:01:24;97345.23;;;4.53;82.66
84975;BME280;75284;50.310;19.284;2024-01-06T11:03:56;97342.48;;;4.52;82.47
84975;BME280;75284;50.310;19.284;2024-01-06T11:06:27;97339.48;;;4.51;82.35
84975;BME280;75284;50.310;19.284;2024-01-06T11:09:02;97338.86;;;4.50;82.33
84975;BME280;75284;50.310;19.284;2024-01-06T11:11:34;97339.35;;;4.50;82.33
84975;BME280;75284;50.310;19.284;2024-01-06T11:14:21;97342.46;;;4.50;82.08
84975;BME280;75284;50.310;19.284;2024-01-06T11:16:51;97340.69;;;4.52;82.25
84975;BME280;75284;50.310;19.284;2024-01-06T11:19:43;97336.75;;;4.58;82.12
84975;BME280;75284;50.310;19.284;2024-01-06T11:22:21;97337.99;;;4.65;82.05
84975;BME280;75284;50.310;19.284;2024-01-06T11:24:53;97339.53;;;4.69;81.93
84975;BME280;75284;50.310;19.284;2024-01-06T11:27:24;97337.51;;;4.67;81.76
84975;BME280;75284;50.310;19.284;2024-01-06T11:29:59;97339.64;;;4.66;81.74
84975;BME280;75284;50.310;19.284;2024-01-06T11:32:30;97339.50;;;4.65;81.74
84975;BME280;75284;50.310;19.284;2024-01-06T11:35:10;97336.73;;;4.66;81.67
84975;BME280;75284;50.310;19.284;2024-01-06T11:37:54;97337.59;;;4.66;81.72
84975;BME280;75284;50.310;19.284;2024-01-06T11:40:36;97337.95;;;4.65;81.47
84975;BME280;75284;50.310;19.284;2024-01-06T11:43:08;97341.52;;;4.61;81.23
84975;BME280;75284;50.310;19.284;2024-01-06T11:45:40;97338.59;;;4.56;81.40
84975;BME280;75284;50.310;19.284;2024-01-06T11:48:11;97333.00;;;4.55;81.55
84975;BME280;75284;50.310;19.284;2024-01-06T11:50:41;97329.27;;;4.56;81.61
84975;BME280;75284;50.310;19.284;2024-01-06T11:53:11;97330.53;;;4.58;81.48
84975;BME280;75284;50.310;19.284;2024-01-06T11:55:41;97329.70;;;4.60;81.80
84975;BME280;75284;50.310;19.284;2024-01-06T11:58:12;97330.23;;;4.65;81.61
84975;BME280;75284;50.310;19.284;2024-01-06T12:00:41;97329.91;;;4.69;81.55
84975;BME280;75284;50.310;19.284;2024-01-06T12:03:11;97328.67;;;4.73;81.32
84975;BME280;75284;50.310;19.284;2024-01-06T12:05:41;97329.31;;;4.76;81.17
84975;BME280;75284;50.310;19.284;2024-01-06T12:08:20;97323.67;;;4.75;81.37
84975;BME280;75284;50.310;19.284;2024-01-06T12:10:50;97324.48;;;4.73;81.02
84975;BME280;75284;50.310;19.284;2024-01-06T12:13:19;97326.08;;;4.70;81.17
84975;BME280;75284;50.310;19.284;2024-01-06T12:15:51;97327.24;;;4.70;81.23
84975;BME280;75284;50.310;19.284;2024-01-06T12:18:20;97325.90;;;4.71;81.37
84975;BME280;75284;50.310;19.284;2024-01-06T12:20:50;97320.95;;;4.71;81.37
84975;BME280;75284;50.310;19.284;2024-01-06T12:23:27;97325.86;;;4.73;81.36
84975;BME280;75284;50.310;19.284;2024-01-06T12:25:57;97324.27;;;4.73;81.19
84975;BME280;75284;50.310;19.284;2024-01-06T12:28:28;97322.84;;;4.70;81.38
84975;BME280;75284;50.310;19.284;2024-01-06T12:30:57;97326.52;;;4.68;81.24
84975;BME280;75284;50.310;19.284;2024-01-06T12:33:27;97333.71;;;4.61;81.33
84975;BME280;75284;50.310;19.284;2024-01-06T12:35:57;97340.69;;;4.52;81.47
84975;BME280;75284;50.310;19.284;2024-01-06T12:38:26;97342.96;;;4.46;81.51
84975;BME280;75284;50.310;19.284;2024-01-06T12:40:59;97346.86;;;4.43;81.44
84975;BME280;75284;50.310;19.284;2024-01-06T12:43:29;97347.08;;;4.37;81.24
84975;BME280;75284;50.310;19.284;2024-01-06T12:45:59;97351.41;;;4.31;81.42
84975;BME280;75284;50.310;19.284;2024-01-06T12:48:28;97353.85;;;4.25;81.46
84975;BME280;75284;50.310;19.284;2024-01-06T12:51:22;97361.58;;;4.18;81.81
84975;BME280;75284;50.310;19.284;2024-01-06T12:53:56;97363.56;;;4.10;81.59
84975;BME280;75284;50.310;19.284;2024-01-06T12:56:26;97362.70;;;4.02;81.80
84975;BME280;75284;50.310;19.284;2024-01-06T12:58:55;97362.27;;;3.99;81.89
84975;BME280;75284;50.310;19.284;2024-01-06T13:01:25;97363.80;;;3.95;81.98
84975;BME280;75284;50.310;19.284;2024-01-06T13:03:55;97370.10;;;3.93;81.71
84975;BME280;75284;50.310;19.284;2024-01-06T13:06:24;97371.95;;;3.91;81.86
84975;BME280;75284;50.310;19.284;2024-01-06T13:08:55;97368.88;;;3.86;81.85
84975;BME280;75284;50.310;19.284;2024-01-06T13:11:25;97369.33;;;3.80;81.79
84975;BME280;75284;50.310;19.284;2024-01-06T13:13:54;97368.83;;;3.75;82.30
84975;BME280;75284;50.310;19.284;2024-01-06T13:16:24;97367.44;;;3.69;82.14
84975;BME280;75284;50.310;19.284;2024-01-06T13:18:54;97369.64;;;3.65;82.19